createdAt,value
2022-12-04T00:01:58.459Z,4.70
2022-12-04T00:04:30.146Z,4.70
2022-12-04T00:07:00.212Z,4.70
2022-12-04T00:09:30.431Z,4.70
2022-12-04T00:12:01.270Z,4.70
2022-12-04T00:14:31.327Z,4.70
2022-12-04T00:17:01.353Z,4.70
2022-12-04T00:19:33.690Z,4.70
2022-12-04T00:22:03.739Z,4.70
2022-12-04T00:24:34.224Z,4.70
2022-12-04T00:27:04.227Z,4.70
2022-12-04T00:32:28.673Z,4.50
2022-12-04T00:35:04.268Z,4.40
2022-12-04T00:37:35.890Z,4.30
2022-12-04T00:40:07.995Z,4.20
2022-12-04T00:42:42.380Z,4.10
2022-12-04T00:45:14.968Z,4.10
2022-12-04T00:47:45.579Z,4.00
2022-12-04T00:50:17.705Z,3.90
2022-12-04T00:52:47.948Z,3.80
2022-12-04T00:55:18.685Z,3.80
2022-12-04T01:00:44.602Z,3.60
2022-12-04T01:03:14.887Z,3.50
2022-12-04T01:05:48.491Z,3.40
2022-12-04T01:08:18.726Z,3.30
2022-12-04T01:10:49.589Z,3.30
2022-12-04T01:13:20.186Z,3.20
2022-12-04T01:15:55.192Z,3.10
2022-12-04T01:18:27.106Z,3.10
2022-12-04T01:20:59.500Z,3.10
2022-12-04T01:23:32.657Z,3.00
2022-12-04T01:26:02.955Z,2.90
2022-12-04T01:28:33.605Z,2.90
2022-12-04T01:31:05.975Z,2.80
2022-12-04T01:33:37.066Z,2.80
2022-12-04T01:36:11.249Z,2.80
2022-12-04T01:38:42.586Z,2.70
2022-12-04T01:41:15.339Z,2.70
2022-12-04T01:43:45.982Z,2.60
2022-12-04T01:46:16.204Z,2.60
2022-12-04T01:48:49.406Z,2.50
2022-12-04T01:51:25.766Z,2.50
2022-12-04T01:54:01.029Z,2.50
2022-12-04T01:56:41.178Z,2.40
2022-12-04T01:59:16.400Z,2.40
2022-12-04T02:01:55.345Z,2.30
2022-12-04T02:04:26.422Z,2.30
2022-12-04T02:06:59.133Z,2.20
2022-12-04T02:09:32.202Z,2.20
2022-12-04T02:12:10.996Z,2.10
2022-12-04T02:14:49.407Z,2.10
2022-12-04T02:17:30.090Z,2.00
2022-12-04T02:23:58.381Z,2.00
2022-12-04T02:26:45.069Z,2.00
2022-12-04T02:32:25.457Z,1.90
2022-12-04T02:35:00.859Z,1.80
2022-12-04T02:37:36.283Z,1.80
2022-12-04T02:40:10.019Z,1.80
2022-12-04T02:45:43.707Z,1.70
2022-12-04T02:48:19.114Z,1.70
2022-12-04T02:53:52.418Z,1.60
2022-12-04T02:56:28.811Z,1.60
2022-12-04T02:59:03.145Z,1.60
2022-12-04T03:01:37.812Z,1.60
2022-12-04T03:04:12.387Z,1.50
2022-12-04T03:06:44.745Z,1.50
2022-12-04T03:09:20.639Z,1.50
2022-12-04T03:11:56.050Z,1.40
2022-12-04T03:14:30.174Z,1.40
2022-12-04T03:17:06.281Z,1.30
2022-12-04T03:19:40.982Z,1.30
2022-12-04T03:22:15.355Z,1.30
2022-12-04T03:24:50.414Z,1.20
2022-12-04T03:27:27.919Z,1.20
2022-12-04T03:30:03.959Z,1.20
2022-12-04T03:32:41.230Z,1.10
2022-12-04T03:35:18.241Z,1.10
2022-12-04T03:37:56.539Z,1.00
2022-12-04T03:40:31.725Z,1.00
2022-12-04T03:43:06.119Z,1.00
2022-12-04T03:45:44.397Z,0.90
2022-12-04T03:48:23.537Z,0.90
2022-12-04T03:50:58.289Z,0.90
2022-12-04T03:53:35.994Z,0.80
2022-12-04T03:56:11.658Z,0.80
2022-12-04T03:58:45.867Z,0.80
2022-12-04T04:01:18.587Z,0.80
2022-12-04T04:03:53.043Z,0.70
2022-12-04T04:06:27.316Z,0.70
2022-12-04T04:09:01.106Z,0.70
2022-12-04T04:11:37.029Z,0.60
2022-12-04T04:14:27.376Z,0.60
2022-12-04T04:17:19.505Z,0.60
2022-12-04T04:20:19.037Z,0.50
2022-12-04T04:23:09.737Z,0.50
2022-12-04T04:25:43.401Z,0.50
2022-12-04T04:28:34.698Z,0.40
2022-12-04T04:31:16.556Z,0.40
2022-12-04T04:33:54.326Z,0.40
2022-12-04T04:36:38.726Z,0.30
2022-12-04T04:39:20.684Z,0.30
2022-12-04T04:41:56.710Z,0.30
2022-12-04T04:44:33.520Z,0.20
2022-12-04T04:47:07.539Z,0.20
2022-12-04T04:49:39.620Z,0.20
2022-12-04T04:52:12.006Z,0.10
2022-12-04T04:54:42.518Z,0.10
2022-12-04T04:57:12.546Z,0.00
2022-12-04T04:59:43.033Z,0.00
2022-12-04T05:02:13.505Z,0.00
2022-12-04T05:04:43.773Z,0.00
2022-12-04T05:07:15.533Z,-0.10
2022-12-04T05:09:45.886Z,-0.10
2022-12-04T05:12:16.134Z,-0.10
2022-12-04T05:14:46.280Z,-0.20
2022-12-04T05:17:16.277Z,-0.30
2022-12-04T05:19:56.008Z,-0.30
2022-12-04T05:22:32.597Z,-0.40
2022-12-04T05:25:03.494Z,-0.50
2022-12-04T05:27:34.413Z,-0.50
2022-12-04T05:30:04.871Z,-0.60
2022-12-04T05:32:34.963Z,-0.60
2022-12-04T05:35:10.555Z,-0.60
2022-12-04T05:37:43.793Z,-0.60
2022-12-04T05:40:15.000Z,-0.60
2022-12-04T05:42:45.206Z,-0.60
2022-12-04T05:45:15.514Z,-0.60
2022-12-04T05:47:46.881Z,-0.60
2022-12-04T05:50:17.119Z,-0.70
2022-12-04T05:52:48.893Z,-0.60
2022-12-04T05:55:19.178Z,-0.60
2022-12-04T05:57:49.499Z,-0.60
2022-12-04T06:00:20.533Z,-0.70
2022-12-04T06:02:50.735Z,-0.70
2022-12-04T06:05:21.203Z,-0.70
2022-12-04T06:07:53.059Z,-0.70
2022-12-04T06:10:23.377Z,-0.80
2022-12-04T06:12:57.844Z,-0.80
2022-12-04T06:15:28.711Z,-0.90
2022-12-04T06:17:58.922Z,-0.90
2022-12-04T06:20:29.229Z,-1.00
2022-12-04T06:23:01.732Z,-1.10
2022-12-04T06:25:32.084Z,-1.10
2022-12-04T06:28:02.260Z,-1.20
2022-12-04T06:30:32.600Z,-1.40
2022-12-04T06:33:02.788Z,-1.50
2022-12-04T06:35:33.039Z,-1.50
2022-12-04T06:38:04.838Z,-1.70
2022-12-04T06:40:35.070Z,-1.70
2022-12-04T06:43:06.028Z,-1.70
2022-12-04T06:45:36.867Z,-1.80
2022-12-04T06:48:07.482Z,-1.80
2022-12-04T06:50:37.875Z,-1.90
2022-12-04T06:53:09.806Z,-1.90
2022-12-04T06:55:40.102Z,-2.00
2022-12-04T06:58:10.262Z,-2.00
2022-12-04T07:00:40.557Z,-2.10
2022-12-04T07:03:11.205Z,-2.10
2022-12-04T07:05:41.866Z,-2.10
2022-12-04T07:08:13.915Z,-2.10
2022-12-04T07:10:44.753Z,-2.10
2022-12-04T07:13:15.212Z,-2.10
2022-12-04T07:15:45.634Z,-2.10
2022-12-04T07:18:15.895Z,-2.10
2022-12-04T07:20:46.198Z,-2.00
2022-12-04T07:23:18.020Z,-2.00
2022-12-04T07:25:48.314Z,-2.00
2022-12-04T07:28:18.984Z,-2.00
2022-12-04T07:30:49.700Z,-2.00
2022-12-04T07:33:19.859Z,-2.10
2022-12-04T07:35:58.557Z,-2.10
2022-12-04T07:38:31.263Z,-2.00
2022-12-04T07:41:02.538Z,-2.00
2022-12-04T07:43:32.974Z,-2.00
2022-12-04T07:46:08.594Z,-2.00
2022-12-04T07:48:38.860Z,-2.00
2022-12-04T07:51:10.553Z,-2.10
2022-12-04T07:53:42.875Z,-2.10
2022-12-04T07:56:14.762Z,-2.20
2022-12-04T07:58:45.741Z,-2.30
2022-12-04T08:01:17.524Z,-2.30
2022-12-04T08:03:49.848Z,-2.40
2022-12-04T08:06:20.995Z,-2.40
2022-12-04T08:08:53.393Z,-2.40
2022-12-04T08:11:26.167Z,-2.50
2022-12-04T08:13:58.419Z,-2.50
2022-12-04T08:16:29.528Z,-2.50
2022-12-04T08:19:00.524Z,-2.40
2022-12-04T08:21:33.058Z,-2.30
2022-12-04T08:24:05.788Z,-2.30
2022-12-04T08:26:36.417Z,-2.20
2022-12-04T08:29:07.269Z,-2.10
2022-12-04T08:31:38.749Z,-2.10
2022-12-04T08:34:10.124Z,-2.10
2022-12-04T08:36:40.367Z,-2.00
2022-12-04T08:39:13.789Z,-2.00
2022-12-04T08:41:44.228Z,-2.00
2022-12-04T08:44:14.800Z,-2.00
2022-12-04T08:46:45.069Z,-2.00
2022-12-04T08:49:15.754Z,-2.00
2022-12-04T08:51:46.461Z,-2.00
2022-12-04T08:54:18.294Z,-2.10
2022-12-04T08:56:48.763Z,-2.10
2022-12-04T08:59:18.952Z,-2.20
2022-12-04T09:01:51.800Z,-2.30
2022-12-04T09:04:22.299Z,-2.40
2022-12-04T09:06:52.568Z,-2.50
2022-12-04T09:09:24.519Z,-2.60
2022-12-04T09:11:54.842Z,-2.70
2022-12-04T09:14:27.161Z,-2.70
2022-12-04T09:16:57.896Z,-2.80
2022-12-04T09:19:28.053Z,-2.80
2022-12-04T09:21:58.519Z,-2.90
2022-12-04T09:24:31.885Z,-2.90
2022-12-04T09:27:02.671Z,-3.00
2022-12-04T09:29:32.917Z,-3.00
2022-12-04T09:32:03.376Z,-3.10
2022-12-04T09:34:33.611Z,-3.10
2022-12-04T09:37:04.037Z,-3.10
2022-12-04T09:39:36.405Z,-3.20
2022-12-04T09:42:17.904Z,-3.20
2022-12-04T09:44:52.412Z,-3.30
2022-12-04T09:47:27.987Z,-3.40
2022-12-04T09:50:02.762Z,-3.50
2022-12-04T09:52:46.441Z,-3.50
2022-12-04T09:55:24.643Z,-3.60
2022-12-04T09:58:01.839Z,-3.60
2022-12-04T10:00:34.455Z,-3.70
2022-12-04T10:03:07.291Z,-3.70
2022-12-04T10:05:50.846Z,-3.80
2022-12-04T10:08:25.007Z,-3.90
2022-12-04T10:11:09.211Z,-4.00
2022-12-04T10:14:15.972Z,-4.10
2022-12-04T10:17:00.482Z,-4.10
2022-12-04T10:19:37.000Z,-4.20
2022-12-04T10:22:14.824Z,-4.10
2022-12-04T10:24:47.936Z,-4.20
2022-12-04T10:27:24.598Z,-4.30
2022-12-04T10:29:59.719Z,-4.50
2022-12-04T10:32:33.720Z,-4.70
2022-12-04T10:35:12.609Z,-4.70
2022-12-04T10:37:44.847Z,-4.80
2022-12-04T10:40:21.613Z,-4.90
2022-12-04T10:42:59.090Z,-4.90
2022-12-04T10:45:29.470Z,-5.00
2022-12-04T10:48:00.616Z,-5.10
2022-12-04T10:50:30.951Z,-5.20
2022-12-04T10:53:01.230Z,-5.30
2022-12-04T10:55:33.732Z,-5.20
2022-12-04T10:58:05.527Z,-5.10
2022-12-04T11:00:37.522Z,-5.10
2022-12-04T11:03:26.451Z,-5.10
2022-12-04T11:05:59.071Z,-5.10
2022-12-04T11:08:33.816Z,-5.10
2022-12-04T11:11:07.918Z,-5.10
2022-12-04T11:13:41.630Z,-5.00
2022-12-04T11:16:32.205Z,-4.90
2022-12-04T11:19:02.410Z,-4.90
2022-12-04T11:21:33.707Z,-4.90
2022-12-04T11:24:04.034Z,-4.90
2022-12-04T11:26:38.054Z,-4.90
2022-12-04T11:29:17.162Z,-5.00
2022-12-04T11:31:52.753Z,-5.00
2022-12-04T11:34:26.084Z,-5.00
2022-12-04T11:36:59.750Z,-5.00
2022-12-04T11:39:34.489Z,-5.00
2022-12-04T11:42:07.737Z,-5.10
2022-12-04T11:44:39.599Z,-5.20
2022-12-04T11:47:20.237Z,-5.30
2022-12-04T11:50:04.037Z,-5.30
2022-12-04T11:52:50.808Z,-5.20
2022-12-04T11:55:28.884Z,-5.30
2022-12-04T11:58:18.065Z,-5.30
2022-12-04T12:00:57.620Z,-5.20
2022-12-04T12:03:35.540Z,-5.20
2022-12-04T12:06:22.211Z,-5.30
2022-12-04T12:09:03.124Z,-5.30
2022-12-04T12:11:38.377Z,-5.20
2022-12-04T12:14:16.456Z,-5.20
2022-12-04T12:16:59.967Z,-5.20
2022-12-04T12:19:51.001Z,-5.20
2022-12-04T12:22:38.570Z,-5.20
2022-12-04T12:25:19.577Z,-5.20
2022-12-04T12:28:04.481Z,-5.20
2022-12-04T12:30:42.182Z,-5.10
2022-12-04T12:33:20.569Z,-5.10
2022-12-04T12:36:03.615Z,-5.10
2022-12-04T12:38:39.962Z,-5.10
2022-12-04T12:41:15.853Z,-5.10
2022-12-04T12:43:51.094Z,-5.10
2022-12-04T12:46:27.336Z,-5.00
2022-12-04T12:49:04.641Z,-5.00
2022-12-04T12:51:39.533Z,-5.10
2022-12-04T12:54:17.806Z,-5.10
2022-12-04T12:56:53.475Z,-5.10
2022-12-04T12:59:27.685Z,-5.00
2022-12-04T13:02:02.842Z,-4.90
2022-12-04T13:04:40.807Z,-4.70
2022-12-04T13:07:27.549Z,-4.60
2022-12-04T13:10:04.265Z,-4.40
2022-12-04T13:12:47.707Z,-4.20
2022-12-04T13:15:24.533Z,-4.10
2022-12-04T13:17:57.651Z,-3.90
2022-12-04T13:20:34.047Z,-3.80
2022-12-04T13:23:21.569Z,-3.80
2022-12-04T13:25:59.263Z,-3.60
2022-12-04T13:28:40.519Z,-3.60
2022-12-04T13:31:21.834Z,-3.50
2022-12-04T13:34:14.045Z,-3.50
2022-12-04T13:37:15.578Z,-3.40
2022-12-04T13:40:32.889Z,-3.40
2022-12-04T13:43:38.692Z,-3.40
2022-12-04T13:46:11.271Z,-3.40
2022-12-04T13:48:42.831Z,-3.30
2022-12-04T13:51:43.159Z,-3.30
2022-12-04T13:54:30.778Z,-3.20
2022-12-04T13:57:20.166Z,-3.20
2022-12-04T13:59:51.420Z,-3.10
2022-12-04T14:02:28.599Z,-3.10
2022-12-04T14:05:04.182Z,-3.10
2022-12-04T14:07:38.527Z,-3.00
2022-12-04T14:10:28.041Z,-3.00
2022-12-04T14:13:05.540Z,-2.90
2022-12-04T14:15:38.125Z,-2.90
2022-12-04T14:18:22.792Z,-2.90
2022-12-04T14:21:03.661Z,-2.80
2022-12-04T14:23:39.342Z,-2.70
2022-12-04T14:26:23.139Z,-2.70
2022-12-04T14:28:53.591Z,-2.60
2022-12-04T14:31:33.798Z,-2.50
2022-12-04T14:34:06.773Z,-2.50
2022-12-04T14:36:43.467Z,-2.50
2022-12-04T14:39:20.714Z,-2.40
2022-12-04T14:41:52.602Z,-2.30
2022-12-04T14:44:29.507Z,-2.20
2022-12-04T14:47:09.597Z,-2.10
2022-12-04T14:49:56.015Z,-2.00
2022-12-04T14:52:33.946Z,-1.80
2022-12-04T14:55:09.672Z,-1.70
2022-12-04T14:57:48.721Z,-1.60
2022-12-04T15:00:21.376Z,-1.50
2022-12-04T15:02:54.161Z,-1.50
2022-12-04T15:05:28.157Z,-1.40
2022-12-04T15:08:02.855Z,-1.30
2022-12-04T15:10:51.651Z,-1.30
2022-12-04T15:13:31.115Z,-1.30
2022-12-04T15:16:10.082Z,-1.30
2022-12-04T15:18:40.229Z,-1.40
2022-12-04T15:21:13.260Z,-1.40
2022-12-04T15:23:44.214Z,-1.30
2022-12-04T15:26:17.782Z,-1.10
2022-12-04T15:28:53.621Z,-1.10
2022-12-04T15:31:26.196Z,-0.90
2022-12-04T15:33:58.845Z,-0.90
2022-12-04T15:36:43.831Z,-1.00
2022-12-04T15:39:24.401Z,-0.80
2022-12-04T15:42:05.676Z,-0.80
2022-12-04T15:44:38.841Z,-0.70
2022-12-04T15:47:22.179Z,-0.60
2022-12-04T15:49:53.269Z,-0.70
2022-12-04T15:52:25.328Z,-0.50
2022-12-04T15:54:58.855Z,-0.30
2022-12-04T15:57:32.213Z,-0.30
2022-12-04T16:00:06.070Z,-0.40
2022-12-04T16:02:38.067Z,-0.40
2022-12-04T16:05:15.157Z,-0.30
2022-12-04T16:07:53.122Z,-0.20
2022-12-04T16:10:26.149Z,-0.10
2022-12-04T16:12:57.723Z,0.00
2022-12-04T16:15:38.497Z,0.10
2022-12-04T16:18:10.054Z,0.30
2022-12-04T16:20:42.224Z,0.50
2022-12-04T16:23:12.667Z,0.50
2022-12-04T16:25:42.648Z,0.50
2022-12-04T16:28:12.773Z,0.50
2022-12-04T16:30:44.364Z,0.60
2022-12-04T16:33:16.981Z,0.70
2022-12-04T16:35:47.105Z,0.90
2022-12-04T16:38:19.019Z,1.10
2022-12-04T16:40:49.747Z,1.30
2022-12-04T16:43:20.323Z,1.30
2022-12-04T16:45:55.948Z,1.40
2022-12-04T16:48:26.390Z,1.40
2022-12-04T16:50:56.409Z,1.20
2022-12-04T16:53:26.517Z,1.10
2022-12-04T16:55:56.543Z,1.10
2022-12-04T16:58:26.602Z,0.80
2022-12-04T17:00:59.158Z,0.80
2022-12-04T17:03:31.244Z,0.60
2022-12-04T17:06:02.295Z,0.60
2022-12-04T17:08:33.833Z,0.50
2022-12-04T17:11:04.175Z,0.40
2022-12-04T17:13:34.732Z,0.10
2022-12-04T17:16:06.526Z,0.00
2022-12-04T17:18:36.687Z,-0.10
2022-12-04T17:21:10.107Z,-0.20
2022-12-04T17:23:40.578Z,-0.30
2022-12-04T17:26:12.093Z,-0.10
2022-12-04T17:28:42.822Z,0.00
2022-12-04T17:31:19.451Z,0.20
2022-12-04T17:33:49.932Z,0.20
2022-12-04T17:36:22.801Z,0.40
2022-12-04T17:38:56.531Z,0.50
2022-12-04T17:41:26.806Z,0.70
2022-12-04T17:43:57.061Z,0.90
2022-12-04T17:46:28.750Z,1.10
2022-12-04T17:49:02.733Z,1.10
2022-12-04T17:51:37.039Z,1.20
2022-12-04T17:54:07.945Z,1.20
2022-12-04T17:56:37.970Z,1.10
2022-12-04T17:59:09.784Z,1.20
2022-12-04T18:01:42.646Z,1.20
2022-12-04T18:04:12.826Z,1.40
2022-12-04T18:06:44.765Z,1.70
2022-12-04T18:09:17.519Z,1.70
2022-12-04T18:11:49.605Z,1.90
2022-12-04T18:14:22.755Z,1.90
2022-12-04T18:16:56.214Z,2.10
2022-12-04T18:19:28.011Z,2.10
2022-12-04T18:21:58.367Z,2.10
2022-12-04T18:24:29.193Z,2.10
2022-12-04T18:26:59.213Z,2.10
2022-12-04T18:29:29.545Z,2.10
2022-12-04T18:32:01.386Z,2.20
2022-12-04T18:34:31.721Z,2.10
2022-12-04T18:37:01.864Z,2.00
2022-12-04T18:39:32.046Z,1.90
2022-12-04T18:42:02.111Z,1.80
2022-12-04T18:44:32.380Z,1.70
2022-12-04T18:47:04.395Z,1.60
2022-12-04T18:49:34.743Z,1.60
2022-12-04T18:52:04.709Z,1.60
2022-12-04T18:54:34.997Z,1.60
2022-12-04T18:57:05.249Z,1.60
2022-12-04T18:59:37.098Z,1.50
2022-12-04T19:02:09.101Z,1.40
2022-12-04T19:04:39.596Z,1.40
2022-12-04T19:07:09.748Z,1.40
2022-12-04T19:12:30.736Z,1.40
2022-12-04T19:15:00.950Z,1.30
2022-12-04T19:17:32.588Z,1.30
2022-12-04T19:20:02.757Z,1.30
2022-12-04T19:22:33.247Z,1.30
2022-12-04T19:25:03.571Z,1.30
2022-12-04T19:27:33.941Z,1.40
2022-12-04T19:30:04.069Z,1.40
2022-12-04T19:32:35.757Z,1.40
2022-12-04T19:35:06.653Z,1.30
2022-12-04T19:37:41.319Z,1.30
2022-12-04T19:40:14.352Z,1.30
2022-12-04T19:42:44.347Z,1.30
2022-12-04T19:45:14.671Z,1.40
2022-12-04T19:47:47.686Z,1.40
2022-12-04T19:50:17.835Z,1.40
2022-12-04T19:52:47.883Z,1.40
2022-12-04T19:55:17.961Z,1.40
2022-12-04T19:57:48.096Z,1.50
2022-12-04T20:00:18.620Z,1.50
2022-12-04T20:02:50.307Z,1.50
2022-12-04T20:05:20.666Z,1.50
2022-12-04T20:07:50.795Z,1.50
2022-12-04T20:10:21.707Z,1.50
2022-12-04T20:12:51.955Z,1.50
2022-12-04T20:15:23.910Z,1.50
2022-12-04T20:17:55.607Z,1.40
2022-12-04T20:20:25.684Z,1.40
2022-12-04T20:22:56.201Z,1.30
2022-12-04T20:25:26.355Z,1.20
2022-12-04T20:27:56.426Z,1.10
2022-12-04T20:30:26.486Z,1.00
2022-12-04T20:32:58.515Z,0.90
2022-12-04T20:35:28.936Z,0.90
2022-12-04T20:37:59.039Z,0.80
2022-12-04T20:40:29.078Z,0.90
2022-12-04T20:42:59.909Z,0.90
2022-12-04T20:45:31.569Z,0.90
2022-12-04T20:48:11.372Z,0.90
2022-12-04T20:50:45.948Z,1.00
2022-12-04T20:53:16.480Z,1.00
2022-12-04T20:55:55.979Z,1.00
2022-12-04T20:58:26.339Z,1.00
2022-12-04T21:00:56.798Z,1.00
2022-12-04T21:03:29.976Z,0.90
2022-12-04T21:06:00.005Z,0.80
2022-12-04T21:08:55.600Z,0.70
2022-12-04T21:11:27.634Z,0.60
2022-12-04T21:14:15.986Z,0.50
2022-12-04T21:16:46.848Z,0.40
2022-12-04T21:19:19.931Z,0.20
2022-12-04T21:21:50.497Z,0.10
2022-12-04T21:24:22.456Z,0.00
2022-12-04T21:26:52.532Z,-0.10
2022-12-04T21:29:22.898Z,-0.10
2022-12-04T21:31:53.013Z,-0.10
2022-12-04T21:34:24.863Z,-0.10
2022-12-04T21:36:54.959Z,-0.10
2022-12-04T21:39:26.075Z,0.00
2022-12-04T21:42:09.823Z,0.00
2022-12-04T21:44:40.599Z,0.00
2022-12-04T21:47:10.666Z,-0.10
2022-12-04T21:49:42.338Z,-0.10
2022-12-04T21:52:12.445Z,-0.10
2022-12-04T21:54:52.284Z,-0.10
2022-12-04T21:57:23.023Z,-0.20
2022-12-04T21:59:54.609Z,-0.20
2022-12-04T22:02:25.031Z,-0.10
2022-12-04T22:04:56.905Z,0.00
2022-12-04T22:07:26.956Z,0.10
2022-12-04T22:09:57.504Z,0.10
2022-12-04T22:12:58.003Z,0.10
2022-12-04T22:15:18.931Z,0.10
2022-12-04T22:17:49.022Z,0.20
2022-12-04T22:20:21.100Z,0.30
2022-12-04T22:22:51.558Z,0.40
2022-12-04T22:25:21.600Z,0.50
2022-12-04T22:27:51.855Z,0.60
2022-12-04T22:30:22.143Z,0.70
2022-12-04T22:32:52.408Z,0.80
2022-12-04T22:35:24.138Z,0.80
2022-12-04T22:37:54.409Z,0.80
2022-12-04T22:40:24.557Z,0.70
2022-12-04T22:42:54.648Z,0.70
2022-12-04T22:45:24.956Z,0.60
2022-12-04T22:47:55.761Z,0.60
2022-12-04T22:50:27.425Z,0.50
2022-12-04T22:52:57.567Z,0.50
2022-12-04T22:55:27.663Z,0.40
2022-12-04T22:57:57.768Z,0.40
2022-12-04T23:00:27.853Z,0.40
2022-12-04T23:02:58.106Z,0.30
2022-12-04T23:05:29.811Z,0.30
2022-12-04T23:07:59.962Z,0.30
2022-12-04T23:10:30.151Z,0.30
2022-12-04T23:13:00.995Z,0.30
2022-12-04T23:15:31.046Z,0.30
2022-12-04T23:18:01.226Z,0.20
2022-12-04T23:20:32.903Z,0.20
2022-12-04T23:23:03.501Z,0.30
2022-12-04T23:25:33.657Z,0.40
2022-12-04T23:28:03.707Z,0.40
2022-12-04T23:30:36.543Z,0.40
2022-12-04T23:33:07.019Z,0.40
2022-12-04T23:35:38.649Z,0.40
2022-12-04T23:38:08.931Z,0.40
2022-12-04T23:40:39.368Z,0.40
2022-12-04T23:43:09.431Z,0.40
2022-12-04T23:45:40.928Z,0.30
2022-12-04T23:48:11.411Z,0.30
2022-12-04T23:50:43.078Z,0.30
2022-12-04T23:53:13.647Z,0.20
2022-12-04T23:55:43.691Z,0.20
2022-12-04T23:58:14.228Z,0.20
